createdAt,value
2022-09-03T00:06:10.980Z,7.80
2022-09-03T00:18:11.475Z,11.90
2022-09-03T00:30:14.610Z,9.20
2022-09-03T00:42:12.363Z,12.10
2022-09-03T00:54:12.798Z,8.30
2022-09-03T01:06:13.296Z,9.90
2022-09-03T01:18:13.760Z,9.90
2022-09-03T01:30:14.172Z,13.00
2022-09-03T01:42:14.623Z,11.40
2022-09-03T01:54:20.812Z,12.70
2022-09-03T02:06:15.543Z,7.90
2022-09-03T02:18:16.021Z,11.60
2022-09-03T02:30:16.429Z,11.40
2022-09-03T02:42:16.893Z,9.60
2022-09-03T02:54:20.952Z,10.40
2022-09-03T03:06:17.808Z,10.30
2022-09-03T03:18:18.249Z,9.90
2022-09-03T03:30:18.709Z,9.30
2022-09-03T03:42:19.159Z,12.20
2022-09-03T03:54:19.604Z,12.80
2022-09-03T04:06:20.047Z,9.00
2022-09-03T04:18:20.562Z,9.20
2022-09-03T04:30:20.949Z,10.70
2022-09-03T04:42:21.391Z,10.20
2022-09-03T04:54:21.893Z,10.00
2022-09-03T05:06:22.363Z,10.70
2022-09-03T05:18:22.832Z,9.70
2022-09-03T05:30:23.251Z,11.20
2022-09-03T05:42:23.693Z,14.20
2022-09-03T05:54:24.186Z,11.90
2022-09-03T06:06:24.595Z,14.30
2022-09-03T06:18:25.254Z,12.10
2022-09-03T06:30:25.606Z,8.20
2022-09-03T06:42:25.984Z,7.30
2022-09-03T06:54:26.409Z,7.00
2022-09-03T07:06:26.870Z,7.20
2022-09-03T07:18:27.307Z,7.90
2022-09-03T07:30:27.799Z,5.40
2022-09-03T07:42:28.231Z,5.30
2022-09-03T07:54:28.697Z,4.10
2022-09-03T08:06:29.130Z,4.20
2022-09-03T08:18:29.603Z,3.80
2022-09-03T08:30:30.037Z,5.00
2022-09-03T08:42:30.498Z,7.80
2022-09-03T08:54:30.970Z,3.70
2022-09-03T09:06:31.446Z,5.20
2022-09-03T09:18:31.880Z,6.90
2022-09-03T09:30:32.331Z,4.10
2022-09-03T09:42:32.772Z,4.90
2022-09-03T09:54:33.232Z,3.30
2022-09-03T10:06:33.691Z,5.30
2022-09-03T10:18:34.125Z,3.60
2022-09-03T10:30:34.610Z,4.30
2022-09-03T10:42:35.085Z,3.30
2022-09-03T10:54:35.518Z,3.80
2022-09-03T11:06:35.968Z,4.50
2022-09-03T11:18:36.394Z,3.40
2022-09-03T11:30:36.971Z,2.80
2022-09-03T11:42:37.300Z,18.40
2022-09-03T11:54:37.796Z,2.90
2022-09-03T12:06:38.255Z,3.40
2022-09-03T12:18:38.711Z,4.30
2022-09-03T12:30:39.207Z,3.80
2022-09-03T12:42:39.601Z,3.00
2022-09-03T12:54:40.068Z,3.70
2022-09-03T13:06:40.558Z,2.30
2022-09-03T13:18:40.996Z,2.80
2022-09-03T13:30:41.482Z,4.60
2022-09-03T13:42:41.948Z,4.10
2022-09-03T13:54:49.051Z,4.80
2022-09-03T14:06:42.830Z,2.00
2022-09-03T14:18:43.291Z,2.10
2022-09-03T14:30:43.741Z,3.10
2022-09-03T14:42:44.236Z,4.40
2022-09-03T14:54:44.623Z,3.20
2022-09-03T15:06:45.167Z,2.70
2022-09-03T15:18:45.660Z,3.00
2022-09-03T15:30:46.088Z,2.80
2022-09-03T15:42:46.497Z,6.00
2022-09-03T15:54:46.945Z,2.60
2022-09-03T16:06:47.406Z,3.00
2022-09-03T16:18:49.907Z,6.30
2022-09-03T16:30:48.323Z,5.20
2022-09-03T16:42:48.770Z,3.30
2022-09-03T16:54:56.090Z,5.20
2022-09-03T17:06:49.713Z,3.80
2022-09-03T17:18:50.094Z,5.00
2022-09-03T17:30:50.623Z,5.20
2022-09-03T17:42:51.053Z,6.30
2022-09-03T17:54:51.542Z,6.10
2022-09-03T18:06:52.269Z,4.30
2022-09-03T18:18:52.383Z,5.60
2022-09-03T18:30:52.912Z,4.50
2022-09-03T18:42:53.358Z,6.20
2022-09-03T18:55:06.924Z,7.50
2022-09-03T19:06:54.582Z,6.50
2022-09-03T19:18:54.711Z,6.40
2022-09-03T19:30:55.206Z,8.70
2022-09-03T19:42:55.600Z,9.00
2022-09-03T19:54:56.061Z,7.90
2022-09-03T20:06:56.497Z,8.70
2022-09-03T20:18:56.987Z,11.90
2022-09-03T20:30:57.466Z,8.30
2022-09-03T20:42:57.892Z,8.00
2022-09-03T20:54:58.348Z,5.10
2022-09-03T21:06:58.803Z,6.80
2022-09-03T21:18:59.272Z,6.70
2022-09-03T21:30:59.757Z,5.70
2022-09-03T21:43:00.135Z,5.00
2022-09-03T21:55:00.630Z,5.90
2022-09-03T22:07:01.073Z,6.30
2022-09-03T22:19:01.480Z,5.10
2022-09-03T22:31:02.066Z,8.30
2022-09-03T22:43:02.454Z,6.00
2022-09-03T22:55:02.881Z,7.80
2022-09-03T23:07:03.320Z,8.90
2022-09-03T23:19:03.786Z,7.00
2022-09-03T23:31:04.244Z,7.80
2022-09-03T23:43:04.670Z,8.50
2022-09-03T23:55:05.128Z,8.90
